createdAt,value
2018-03-26T00:00:41.614Z,0.00
2018-03-26T00:01:41.830Z,0.00
2018-03-26T00:02:42.037Z,0.00
2018-03-26T00:03:42.234Z,0.00
2018-03-26T00:04:42.452Z,0.00
2018-03-26T00:05:42.658Z,0.00
2018-03-26T00:06:44.662Z,0.00
2018-03-26T00:07:43.004Z,0.00
2018-03-26T00:08:43.214Z,0.00
2018-03-26T00:09:43.429Z,0.00
2018-03-26T00:10:45.160Z,0.00
2018-03-26T00:11:43.865Z,0.00
2018-03-26T00:12:47.662Z,0.00
2018-03-26T00:13:46.166Z,0.00
2018-03-26T00:14:46.161Z,0.00
2018-03-26T00:15:48.162Z,0.00
2018-03-26T00:16:44.624Z,0.00
2018-03-26T00:17:44.833Z,0.00
2018-03-26T00:18:45.035Z,0.00
2018-03-26T00:19:45.241Z,0.00
2018-03-26T00:20:47.162Z,0.00
2018-03-26T00:21:47.184Z,0.00
2018-03-26T00:22:45.741Z,0.00
2018-03-26T00:23:45.958Z,0.00
2018-03-26T00:24:46.164Z,0.00
2018-03-26T00:25:46.383Z,0.00
2018-03-26T00:26:46.592Z,0.00
2018-03-26T00:27:46.800Z,0.00
2018-03-26T00:28:47.012Z,0.00
2018-03-26T00:29:47.234Z,0.00
2018-03-26T00:30:47.431Z,0.00
2018-03-26T00:31:47.655Z,0.00
2018-03-26T00:32:47.852Z,0.00
2018-03-26T00:33:48.100Z,0.00
2018-03-26T00:34:52.230Z,0.00
2018-03-26T00:35:48.511Z,0.00
2018-03-26T00:36:48.710Z,0.00
2018-03-26T00:37:48.924Z,0.00
2018-03-26T00:38:49.130Z,0.00
2018-03-26T00:39:51.160Z,0.00
2018-03-26T00:40:49.491Z,0.00
2018-03-26T00:41:49.702Z,0.00
2018-03-26T00:42:49.917Z,0.00
2018-03-26T00:43:50.117Z,0.00
2018-03-26T00:44:50.331Z,0.00
2018-03-26T00:45:50.540Z,0.00
2018-03-26T00:46:50.750Z,0.00
2018-03-26T00:47:50.965Z,0.00
2018-03-26T00:48:51.174Z,0.00
2018-03-26T00:49:51.374Z,0.00
2018-03-26T00:50:53.206Z,0.00
2018-03-26T00:51:51.752Z,0.00
2018-03-26T00:52:51.961Z,0.00
2018-03-26T00:53:52.179Z,0.00
2018-03-26T00:54:52.387Z,0.00
2018-03-26T00:55:52.596Z,0.00
2018-03-26T00:56:52.813Z,0.00
2018-03-26T00:57:53.016Z,0.00
2018-03-26T00:58:53.230Z,0.00
2018-03-26T00:59:53.446Z,0.00
2018-03-26T01:00:53.653Z,0.00
2018-03-26T01:01:53.867Z,0.00
2018-03-26T01:02:54.085Z,0.00
2018-03-26T01:03:54.288Z,0.00
2018-03-26T01:04:56.160Z,0.00
2018-03-26T01:05:54.616Z,0.00
2018-03-26T01:06:54.831Z,0.00
2018-03-26T01:07:56.662Z,0.00
2018-03-26T01:08:55.243Z,0.00
2018-03-26T01:09:55.463Z,0.00
2018-03-26T01:10:55.664Z,0.00
2018-03-26T01:11:55.876Z,0.00
2018-03-26T01:12:56.091Z,0.00
2018-03-26T01:13:56.299Z,0.00
2018-03-26T01:14:58.160Z,0.00
2018-03-26T01:15:56.622Z,0.00
2018-03-26T01:17:00.662Z,0.00
2018-03-26T01:17:56.998Z,0.00
2018-03-26T01:18:57.204Z,0.00
2018-03-26T01:19:57.410Z,0.00
2018-03-26T01:20:57.622Z,0.00
2018-03-26T01:21:57.835Z,0.00
2018-03-26T01:22:58.039Z,0.00
2018-03-26T01:23:58.259Z,0.00
2018-03-26T01:24:58.460Z,0.00
2018-03-26T01:25:58.669Z,0.00
2018-03-26T01:26:58.883Z,0.00
2018-03-26T01:27:59.084Z,0.00
2018-03-26T01:28:59.304Z,0.00
2018-03-26T01:29:59.520Z,0.00
2018-03-26T01:30:59.721Z,0.00
2018-03-26T01:32:01.680Z,0.00
2018-03-26T01:33:01.695Z,0.00
2018-03-26T01:34:00.253Z,0.00
2018-03-26T01:35:00.466Z,0.00
2018-03-26T01:36:00.674Z,0.00
2018-03-26T01:37:00.894Z,0.00
2018-03-26T01:38:01.107Z,0.00
2018-03-26T01:39:03.170Z,0.00
2018-03-26T01:40:03.164Z,0.00
2018-03-26T01:41:01.609Z,0.00
2018-03-26T01:42:01.813Z,0.00
2018-03-26T01:43:05.662Z,0.00
2018-03-26T01:44:04.161Z,0.00
2018-03-26T01:45:02.377Z,0.00
2018-03-26T01:46:04.161Z,0.00
2018-03-26T01:47:02.748Z,0.00
2018-03-26T01:48:09.668Z,0.00
2018-03-26T01:49:03.127Z,0.00
2018-03-26T01:50:03.333Z,0.00
2018-03-26T01:51:03.559Z,0.00
2018-03-26T01:52:03.765Z,0.00
2018-03-26T01:53:03.977Z,0.00
2018-03-26T01:54:04.190Z,0.00
2018-03-26T01:55:04.399Z,0.00
2018-03-26T01:56:04.601Z,0.00
2018-03-26T01:57:06.663Z,0.00
2018-03-26T01:58:06.664Z,0.00
2018-03-26T01:59:05.153Z,0.00
2018-03-26T02:00:07.165Z,0.00
2018-03-26T02:01:05.499Z,0.00
2018-03-26T02:02:05.725Z,0.00
2018-03-26T02:03:05.927Z,0.00
2018-03-26T02:04:06.148Z,0.00
2018-03-26T02:05:08.161Z,0.00
2018-03-26T02:06:06.486Z,0.00
2018-03-26T02:07:06.703Z,0.00
2018-03-26T02:08:06.923Z,0.00
2018-03-26T02:09:07.134Z,0.00
2018-03-26T02:10:07.337Z,0.00
2018-03-26T02:11:07.541Z,0.00
2018-03-26T02:12:07.743Z,0.00
2018-03-26T02:13:11.673Z,0.00
2018-03-26T02:14:08.107Z,0.00
2018-03-26T02:15:08.318Z,0.00
2018-03-26T02:16:08.533Z,0.00
2018-03-26T02:17:08.747Z,0.00
2018-03-26T02:18:08.970Z,0.00
2018-03-26T02:19:11.675Z,0.00
2018-03-26T02:20:09.373Z,0.00
2018-03-26T02:21:09.596Z,0.00
2018-03-26T02:22:09.815Z,0.00
2018-03-26T02:23:10.040Z,0.00
2018-03-26T02:24:10.234Z,0.00
2018-03-26T02:25:10.446Z,0.00
2018-03-26T02:26:10.656Z,0.00
2018-03-26T02:27:10.858Z,0.00
2018-03-26T02:28:11.067Z,0.00
2018-03-26T02:29:11.314Z,0.00
2018-03-26T02:30:11.494Z,0.00
2018-03-26T02:31:11.709Z,0.00
2018-03-26T02:32:11.928Z,0.00
2018-03-26T02:33:12.133Z,0.00
2018-03-26T02:34:12.345Z,0.00
2018-03-26T02:35:14.166Z,0.00
2018-03-26T02:36:14.660Z,0.00
2018-03-26T02:37:12.880Z,0.00
2018-03-26T02:38:13.086Z,0.00
2018-03-26T02:39:13.297Z,0.00
2018-03-26T02:40:13.511Z,0.00
2018-03-26T02:41:13.720Z,0.00
2018-03-26T02:42:15.677Z,0.00
2018-03-26T02:43:14.194Z,0.00
2018-03-26T02:44:16.162Z,0.00
2018-03-26T02:45:14.487Z,0.00
2018-03-26T02:46:14.700Z,0.00
2018-03-26T02:47:14.897Z,0.00
2018-03-26T02:48:15.103Z,0.00
2018-03-26T02:49:15.309Z,0.00
2018-03-26T02:50:15.528Z,0.00
2018-03-26T02:51:17.661Z,0.00
2018-03-26T02:52:15.863Z,0.00
2018-03-26T02:53:16.079Z,0.00
2018-03-26T02:54:16.296Z,0.00
2018-03-26T02:55:18.173Z,0.00
2018-03-26T02:56:18.171Z,0.00
2018-03-26T02:57:16.757Z,0.00
2018-03-26T02:58:16.954Z,0.00
2018-03-26T02:59:17.183Z,0.00
2018-03-26T03:00:17.383Z,0.00
2018-03-26T03:01:17.595Z,0.00
2018-03-26T03:02:19.670Z,0.00
2018-03-26T03:03:17.991Z,0.00
2018-03-26T03:04:18.197Z,0.00
2018-03-26T03:05:18.409Z,0.00
2018-03-26T03:06:18.608Z,0.00
2018-03-26T03:07:18.820Z,0.00
2018-03-26T03:08:19.088Z,0.00
2018-03-26T03:09:19.240Z,0.00
2018-03-26T03:10:19.451Z,0.00
2018-03-26T03:11:19.665Z,0.00
2018-03-26T03:12:19.881Z,0.00
2018-03-26T03:13:20.082Z,0.00
2018-03-26T03:14:20.298Z,0.00
2018-03-26T03:15:20.508Z,0.00
2018-03-26T03:16:22.662Z,0.00
2018-03-26T03:17:20.862Z,0.00
2018-03-26T03:18:21.073Z,0.00
2018-03-26T03:19:25.160Z,0.00
2018-03-26T03:20:21.493Z,0.00
2018-03-26T03:21:21.710Z,0.00
2018-03-26T03:22:21.911Z,0.00
2018-03-26T03:23:22.128Z,0.00
2018-03-26T03:24:22.348Z,0.00
2018-03-26T03:25:22.545Z,0.00
2018-03-26T03:26:22.758Z,0.00
2018-03-26T03:27:22.979Z,0.00
2018-03-26T03:28:23.168Z,0.00
2018-03-26T03:29:23.382Z,0.00
2018-03-26T03:30:23.587Z,0.00
2018-03-26T03:31:23.791Z,0.00
2018-03-26T03:32:24.015Z,0.00
2018-03-26T03:33:24.212Z,0.00
2018-03-26T03:34:26.179Z,0.00
2018-03-26T03:35:24.634Z,0.00
2018-03-26T03:36:26.661Z,0.00
2018-03-26T03:37:24.989Z,0.00
2018-03-26T03:38:27.165Z,0.00
2018-03-26T03:39:25.364Z,0.00
2018-03-26T03:40:25.563Z,0.00
2018-03-26T03:41:25.768Z,0.00
2018-03-26T03:42:27.665Z,0.00
2018-03-26T03:43:26.125Z,0.00
2018-03-26T03:44:26.335Z,0.00
2018-03-26T03:45:26.551Z,0.00
2018-03-26T03:46:28.664Z,0.00
2018-03-26T03:47:30.664Z,0.00
2018-03-26T03:48:27.129Z,0.00
2018-03-26T03:49:27.329Z,0.00
2018-03-26T03:50:30.166Z,0.00
2018-03-26T03:51:27.750Z,0.00
2018-03-26T03:52:29.684Z,0.00
2018-03-26T03:53:28.151Z,0.00
2018-03-26T03:54:30.163Z,0.00
2018-03-26T03:55:28.486Z,0.00
2018-03-26T03:56:28.698Z,0.00
2018-03-26T03:57:28.909Z,0.00
2018-03-26T03:58:29.123Z,0.00
2018-03-26T03:59:29.324Z,0.00
2018-03-26T04:00:29.535Z,0.00
2018-03-26T04:01:29.737Z,0.00
2018-03-26T04:02:29.959Z,0.00
2018-03-26T04:03:30.168Z,0.00
2018-03-26T04:04:30.416Z,0.00
2018-03-26T04:05:30.588Z,0.00
2018-03-26T04:06:30.792Z,0.00
2018-03-26T04:07:31.018Z,0.00
2018-03-26T04:08:31.213Z,0.00
2018-03-26T04:09:35.166Z,0.00
2018-03-26T04:10:31.628Z,0.00
2018-03-26T04:11:31.845Z,0.00
2018-03-26T04:12:33.659Z,0.00
2018-03-26T04:13:32.245Z,0.00
2018-03-26T04:14:32.449Z,0.00
2018-03-26T04:15:32.658Z,0.00
2018-03-26T04:16:34.677Z,0.00
2018-03-26T04:17:32.988Z,0.00
2018-03-26T04:18:35.174Z,0.00
2018-03-26T04:19:33.378Z,0.00
2018-03-26T04:20:33.582Z,0.00
2018-03-26T04:21:33.793Z,0.00
2018-03-26T04:22:35.664Z,0.00
2018-03-26T04:23:35.682Z,0.00
2018-03-26T04:24:36.164Z,0.00
2018-03-26T04:25:34.362Z,0.00
2018-03-26T04:26:42.165Z,0.00
2018-03-26T04:27:34.739Z,0.00
2018-03-26T04:28:34.939Z,0.00
2018-03-26T04:29:35.150Z,0.00
2018-03-26T04:30:35.364Z,0.00
2018-03-26T04:31:35.565Z,0.00
2018-03-26T04:32:35.783Z,0.00
2018-03-26T04:33:35.985Z,0.00
2018-03-26T04:34:38.166Z,0.00
2018-03-26T04:35:38.160Z,0.00
2018-03-26T04:36:36.500Z,0.00
2018-03-26T04:37:36.705Z,0.00
2018-03-26T04:38:36.911Z,0.00
2018-03-26T04:39:37.110Z,0.00
2018-03-26T04:40:39.163Z,0.00
2018-03-26T04:41:37.495Z,0.00
2018-03-26T04:42:37.705Z,0.00
2018-03-26T04:43:37.936Z,0.00
2018-03-26T04:44:39.673Z,0.00
2018-03-26T04:45:40.166Z,0.00
2018-03-26T04:46:38.388Z,0.00
2018-03-26T04:47:38.588Z,0.00
2018-03-26T04:48:38.802Z,0.00
2018-03-26T04:49:39.000Z,0.00
2018-03-26T04:50:39.201Z,0.00
2018-03-26T04:51:39.414Z,0.00
2018-03-26T04:52:39.639Z,0.00
2018-03-26T04:53:39.828Z,0.00
2018-03-26T04:54:40.042Z,0.00
2018-03-26T04:55:40.252Z,0.00
2018-03-26T04:56:40.461Z,0.00
2018-03-26T04:57:42.163Z,0.00
2018-03-26T04:58:43.672Z,0.00
2018-03-26T04:59:40.993Z,0.00
2018-03-26T05:00:43.160Z,0.00
2018-03-26T05:01:43.159Z,0.00
2018-03-26T05:02:41.498Z,0.00
2018-03-26T05:03:41.703Z,0.00
2018-03-26T05:04:41.924Z,0.00
2018-03-26T05:05:45.659Z,0.00
2018-03-26T05:06:42.231Z,5.63
2018-03-26T05:07:42.440Z,5.63
2018-03-26T05:08:42.653Z,5.63
2018-03-26T05:09:46.665Z,5.63
2018-03-26T05:10:43.004Z,5.63
2018-03-26T05:11:43.216Z,5.63
2018-03-26T05:12:43.426Z,5.63
2018-03-26T05:13:45.158Z,5.63
2018-03-26T05:14:43.864Z,5.63
2018-03-26T05:15:44.070Z,11.25
2018-03-26T05:16:44.287Z,11.25
2018-03-26T05:17:44.477Z,11.25
2018-03-26T05:18:44.727Z,11.25
2018-03-26T05:19:44.913Z,11.25
2018-03-26T05:20:48.661Z,11.25
2018-03-26T05:21:45.247Z,11.25
2018-03-26T05:22:45.499Z,11.25
2018-03-26T05:23:45.658Z,16.88
2018-03-26T05:24:45.871Z,16.88
2018-03-26T05:25:46.073Z,16.88
2018-03-26T05:26:46.294Z,16.88
2018-03-26T05:27:46.497Z,16.88
2018-03-26T05:28:48.662Z,16.88
2018-03-26T05:29:46.874Z,16.88
2018-03-26T05:30:47.083Z,22.50
2018-03-26T05:31:47.289Z,22.50
2018-03-26T05:32:47.501Z,22.50
2018-03-26T05:33:47.701Z,22.50
2018-03-26T05:34:47.900Z,22.50
2018-03-26T05:35:49.667Z,22.50
2018-03-26T05:36:48.262Z,22.50
2018-03-26T05:37:48.459Z,28.13
2018-03-26T05:38:48.668Z,28.13
2018-03-26T05:39:50.663Z,28.13
2018-03-26T05:40:48.999Z,28.13
2018-03-26T05:41:49.208Z,28.13
2018-03-26T05:42:49.417Z,28.13
2018-03-26T05:43:49.625Z,28.13
2018-03-26T05:44:49.828Z,28.13
2018-03-26T05:45:51.658Z,33.75
2018-03-26T05:46:52.163Z,33.75
2018-03-26T05:47:52.163Z,33.75
2018-03-26T05:48:50.495Z,33.75
2018-03-26T05:49:50.699Z,33.75
2018-03-26T05:50:50.913Z,33.75
2018-03-26T05:51:51.126Z,33.75
2018-03-26T05:52:51.331Z,33.75
2018-03-26T05:53:51.543Z,33.75
2018-03-26T05:54:51.752Z,33.75
2018-03-26T05:55:55.663Z,33.75
2018-03-26T05:56:52.130Z,33.75
2018-03-26T05:57:54.177Z,39.38
2018-03-26T05:58:52.502Z,39.38
2018-03-26T05:59:52.704Z,39.38
2018-03-26T06:00:54.663Z,39.38
2018-03-26T06:01:54.665Z,39.38
2018-03-26T06:02:53.256Z,39.38
2018-03-26T06:03:57.165Z,39.38
2018-03-26T06:04:53.612Z,45.00
2018-03-26T06:05:53.831Z,45.00
2018-03-26T06:06:57.665Z,45.00
2018-03-26T06:07:54.252Z,45.00
2018-03-26T06:08:54.475Z,45.00
2018-03-26T06:09:54.668Z,45.00
2018-03-26T06:10:54.890Z,50.63
2018-03-26T06:11:56.679Z,50.63
2018-03-26T06:12:59.160Z,50.63
2018-03-26T06:13:55.371Z,50.63
2018-03-26T06:14:55.590Z,50.63
2018-03-26T06:15:55.794Z,50.63
2018-03-26T06:16:56.023Z,50.63
2018-03-26T06:17:56.225Z,50.63
2018-03-26T06:18:56.419Z,50.63
2018-03-26T06:19:56.615Z,50.63
2018-03-26T06:20:56.820Z,50.63
2018-03-26T06:21:57.034Z,50.63
2018-03-26T06:22:57.234Z,50.63
2018-03-26T06:23:57.433Z,50.63
2018-03-26T06:24:59.159Z,50.63
2018-03-26T06:26:01.677Z,56.25
2018-03-26T06:26:58.006Z,56.25
2018-03-26T06:27:58.219Z,61.88
2018-03-26T06:28:58.420Z,61.88
2018-03-26T06:29:58.641Z,61.88
2018-03-26T06:30:58.855Z,67.50
2018-03-26T06:31:59.774Z,67.50
2018-03-26T06:32:59.243Z,67.50
2018-03-26T06:33:59.460Z,67.50
2018-03-26T06:34:59.655Z,67.50
2018-03-26T06:35:59.871Z,67.50
2018-03-26T06:37:00.082Z,67.50
2018-03-26T06:38:00.326Z,67.50
2018-03-26T06:39:00.509Z,67.50
2018-03-26T06:40:02.668Z,73.13
2018-03-26T06:41:00.863Z,73.13
2018-03-26T06:42:01.059Z,73.13
2018-03-26T06:43:01.274Z,67.50
2018-03-26T06:44:05.197Z,67.50
2018-03-26T06:45:01.616Z,67.50
2018-03-26T06:46:03.660Z,67.50
2018-03-26T06:47:02.008Z,67.50
2018-03-26T06:48:02.210Z,61.88
2018-03-26T06:49:04.160Z,61.88
2018-03-26T06:50:02.635Z,61.88
2018-03-26T06:51:06.659Z,67.50
2018-03-26T06:52:02.991Z,67.50
2018-03-26T06:53:03.194Z,67.50
2018-03-26T06:54:05.157Z,67.50
2018-03-26T06:55:03.619Z,67.50
2018-03-26T06:56:03.823Z,73.13
2018-03-26T06:57:06.617Z,73.13
2018-03-26T06:58:06.188Z,73.13
2018-03-26T06:59:04.362Z,78.75
2018-03-26T07:00:04.562Z,84.38
2018-03-26T07:01:04.769Z,90.00
2018-03-26T07:02:04.980Z,90.00
2018-03-26T07:03:05.184Z,95.63
2018-03-26T07:04:05.390Z,95.63
2018-03-26T07:05:07.164Z,101.25
2018-03-26T07:06:05.748Z,101.25
2018-03-26T07:07:05.951Z,101.25
2018-03-26T07:08:06.161Z,101.25
2018-03-26T07:09:06.364Z,101.25
2018-03-26T07:10:06.567Z,101.25
2018-03-26T07:11:06.781Z,101.25
2018-03-26T07:12:06.984Z,106.88
2018-03-26T07:13:07.184Z,106.88
2018-03-26T07:14:07.406Z,106.88
2018-03-26T07:15:07.607Z,106.88
2018-03-26T07:16:07.825Z,101.25
2018-03-26T07:17:09.656Z,101.25
2018-03-26T07:18:08.236Z,101.25
2018-03-26T07:19:08.454Z,101.25
2018-03-26T07:20:12.165Z,101.25
2018-03-26T07:21:08.865Z,101.25
2018-03-26T07:22:09.070Z,101.25
2018-03-26T07:23:09.327Z,95.63
2018-03-26T07:24:09.488Z,95.63
2018-03-26T07:25:11.665Z,90.00
2018-03-26T07:26:09.872Z,84.38
2018-03-26T07:27:10.066Z,84.38
2018-03-26T07:28:10.270Z,78.75
2018-03-26T07:29:10.482Z,78.75
2018-03-26T07:30:10.681Z,78.75
2018-03-26T07:31:10.900Z,73.13
2018-03-26T07:32:11.101Z,73.13
2018-03-26T07:33:11.330Z,73.13
2018-03-26T07:34:11.522Z,73.13
2018-03-26T07:35:11.736Z,78.75
2018-03-26T07:36:11.958Z,78.75
2018-03-26T07:37:12.163Z,78.75
2018-03-26T07:38:12.383Z,84.38
2018-03-26T07:39:12.601Z,84.38
2018-03-26T07:40:12.805Z,84.38
2018-03-26T07:41:14.712Z,90.00
2018-03-26T07:42:13.132Z,90.00
2018-03-26T07:43:13.330Z,90.00
2018-03-26T07:44:13.555Z,84.38
2018-03-26T07:45:13.765Z,84.38
2018-03-26T07:46:13.969Z,84.38
2018-03-26T07:47:14.190Z,84.38
2018-03-26T07:48:14.390Z,84.38
2018-03-26T07:49:14.604Z,84.38
2018-03-26T07:50:14.821Z,84.38
2018-03-26T07:51:16.657Z,90.00
2018-03-26T07:52:15.250Z,95.63
2018-03-26T07:53:15.467Z,95.63
2018-03-26T07:54:15.676Z,101.25
2018-03-26T07:55:15.887Z,101.25
2018-03-26T07:56:16.100Z,106.88
2018-03-26T07:57:18.176Z,106.88
2018-03-26T07:58:16.504Z,112.50
2018-03-26T07:59:18.662Z,112.50
2018-03-26T08:00:16.900Z,112.50
2018-03-26T08:01:16.979Z,112.50
2018-03-26T08:02:17.183Z,118.13
2018-03-26T08:03:17.401Z,118.13
2018-03-26T08:04:17.603Z,118.13
2018-03-26T08:05:17.810Z,118.13
2018-03-26T08:06:19.659Z,112.50
2018-03-26T08:07:18.235Z,112.50
2018-03-26T08:08:18.444Z,112.50
2018-03-26T08:09:18.658Z,112.50
2018-03-26T08:10:18.879Z,112.50
2018-03-26T08:11:19.073Z,106.88
2018-03-26T08:12:21.165Z,106.88
2018-03-26T08:13:19.490Z,106.88
2018-03-26T08:14:21.661Z,106.88
2018-03-26T08:15:19.861Z,112.50
2018-03-26T08:16:21.660Z,112.50
2018-03-26T08:17:20.258Z,112.50
2018-03-26T08:18:20.457Z,112.50
2018-03-26T08:19:20.658Z,112.50
2018-03-26T08:20:22.663Z,118.13
2018-03-26T08:21:22.658Z,118.13
2018-03-26T08:22:21.116Z,118.13
2018-03-26T08:23:23.173Z,123.75
2018-03-26T08:24:21.509Z,123.75
2018-03-26T08:25:21.710Z,123.75
2018-03-26T08:26:23.066Z,123.75
2018-03-26T08:27:22.025Z,123.75
2018-03-26T08:28:22.240Z,123.75
2018-03-26T08:29:22.448Z,123.75
2018-03-26T08:30:22.665Z,123.75
2018-03-26T08:31:22.868Z,123.75
2018-03-26T08:32:23.084Z,123.75
2018-03-26T08:33:23.544Z,129.38
2018-03-26T08:34:23.491Z,129.38
2018-03-26T08:35:23.714Z,129.38
2018-03-26T08:36:27.793Z,129.38
2018-03-26T08:37:25.660Z,129.38
2018-03-26T08:38:24.254Z,123.75
2018-03-26T08:39:24.488Z,123.75
2018-03-26T08:40:24.706Z,123.75
2018-03-26T08:41:26.661Z,123.75
2018-03-26T08:42:25.039Z,123.75
2018-03-26T08:43:28.247Z,123.75
2018-03-26T08:44:27.166Z,123.75
2018-03-26T08:45:25.490Z,129.38
2018-03-26T08:46:25.723Z,135.00
2018-03-26T08:47:27.662Z,135.00
2018-03-26T08:48:26.118Z,140.63
2018-03-26T08:49:27.083Z,140.63
2018-03-26T08:50:28.208Z,140.63
2018-03-26T08:51:26.752Z,140.63
2018-03-26T08:52:26.962Z,146.25
2018-03-26T08:53:29.364Z,146.25
2018-03-26T08:54:27.384Z,140.63
2018-03-26T08:55:27.593Z,140.63
2018-03-26T08:56:27.808Z,146.25
2018-03-26T08:57:28.012Z,151.88
2018-03-26T08:58:28.271Z,151.88
2018-03-26T08:59:28.444Z,157.50
2018-03-26T09:00:28.652Z,157.50
2018-03-26T09:01:28.870Z,157.50
2018-03-26T09:02:29.090Z,163.13
2018-03-26T09:03:29.465Z,163.13
2018-03-26T09:04:29.428Z,163.13
2018-03-26T09:05:29.663Z,157.50
2018-03-26T09:06:29.835Z,151.88
2018-03-26T09:07:30.051Z,151.88
2018-03-26T09:08:30.256Z,157.50
2018-03-26T09:09:30.508Z,151.88
2018-03-26T09:10:30.685Z,157.50
2018-03-26T09:11:30.903Z,163.13
2018-03-26T09:12:31.125Z,157.50
2018-03-26T09:13:31.314Z,157.50
2018-03-26T09:14:31.520Z,157.50
2018-03-26T09:15:31.750Z,151.88
2018-03-26T09:16:31.940Z,151.88
2018-03-26T09:17:33.704Z,151.88
2018-03-26T09:18:32.368Z,151.88
2018-03-26T09:19:32.578Z,146.25
2018-03-26T09:20:32.781Z,146.25
2018-03-26T09:21:32.989Z,146.25
2018-03-26T09:22:36.167Z,146.25
2018-03-26T09:23:33.366Z,146.25
2018-03-26T09:24:35.160Z,151.88
2018-03-26T09:25:35.684Z,157.50
2018-03-26T09:26:33.861Z,157.50
2018-03-26T09:27:34.076Z,157.50
2018-03-26T09:28:34.293Z,157.50
2018-03-26T09:29:34.499Z,157.50
2018-03-26T09:30:36.661Z,163.13
2018-03-26T09:31:38.672Z,163.13
2018-03-26T09:32:35.012Z,163.13
2018-03-26T09:33:35.200Z,157.50
2018-03-26T09:34:35.405Z,157.50
2018-03-26T09:35:35.620Z,157.50
2018-03-26T09:36:35.835Z,157.50
2018-03-26T09:37:36.032Z,157.50
2018-03-26T09:38:36.241Z,163.13
2018-03-26T09:39:38.163Z,163.13
2018-03-26T09:40:36.624Z,157.50
2018-03-26T09:41:36.825Z,163.13
2018-03-26T09:42:37.031Z,157.50
2018-03-26T09:43:37.241Z,157.50
2018-03-26T09:44:37.459Z,163.13
2018-03-26T09:45:37.664Z,174.38
2018-03-26T09:46:37.869Z,185.63
2018-03-26T09:47:38.069Z,196.88
2018-03-26T09:48:38.281Z,202.50
2018-03-26T09:49:38.494Z,208.13
2018-03-26T09:50:40.666Z,213.75
2018-03-26T09:51:38.885Z,213.75
2018-03-26T09:52:39.090Z,219.38
2018-03-26T09:53:39.312Z,219.38
2018-03-26T09:54:43.159Z,225.00
2018-03-26T09:55:39.734Z,225.00
2018-03-26T09:56:39.951Z,230.63
2018-03-26T09:57:40.155Z,230.63
2018-03-26T09:58:40.365Z,236.25
2018-03-26T09:59:40.595Z,236.25
2018-03-26T10:00:40.804Z,236.25
2018-03-26T10:01:44.662Z,236.25
2018-03-26T10:02:41.126Z,241.88
2018-03-26T10:03:41.330Z,253.13
2018-03-26T10:04:41.547Z,258.75
2018-03-26T10:05:41.772Z,270.00
2018-03-26T10:06:41.964Z,281.25
2018-03-26T10:07:42.179Z,286.88
2018-03-26T10:08:42.385Z,286.88
2018-03-26T10:09:44.163Z,286.88
2018-03-26T10:10:42.734Z,292.50
2018-03-26T10:11:42.955Z,292.50
2018-03-26T10:12:43.170Z,298.13
2018-03-26T10:13:43.380Z,303.75
2018-03-26T10:14:43.600Z,315.00
2018-03-26T10:15:43.800Z,320.63
2018-03-26T10:16:44.011Z,331.88
2018-03-26T10:17:46.159Z,337.50
2018-03-26T10:18:44.364Z,343.13
2018-03-26T10:19:44.585Z,348.75
2018-03-26T10:20:44.783Z,354.38
2018-03-26T10:21:44.990Z,360.00
2018-03-26T10:22:45.200Z,371.25
2018-03-26T10:23:45.419Z,371.25
2018-03-26T10:24:45.614Z,376.88
2018-03-26T10:25:47.663Z,388.13
2018-03-26T10:26:45.993Z,393.75
2018-03-26T10:27:50.160Z,399.38
2018-03-26T10:28:46.375Z,416.25
2018-03-26T10:29:46.617Z,427.50
2018-03-26T10:30:46.798Z,438.75
2018-03-26T10:31:47.005Z,461.25
2018-03-26T10:32:47.208Z,478.13
2018-03-26T10:33:51.163Z,495.00
2018-03-26T10:34:49.161Z,506.25
2018-03-26T10:35:47.757Z,511.88
2018-03-26T10:36:47.968Z,517.50
2018-03-26T10:37:48.184Z,534.38
2018-03-26T10:38:48.398Z,556.88
2018-03-26T10:39:50.192Z,579.38
2018-03-26T10:40:48.776Z,613.13
2018-03-26T10:41:49.003Z,641.25
2018-03-26T10:42:49.211Z,675.00
2018-03-26T10:43:49.412Z,708.75
2018-03-26T10:44:49.621Z,753.75
2018-03-26T10:45:49.821Z,793.13
2018-03-26T10:46:50.033Z,826.88
2018-03-26T10:47:50.239Z,866.25
2018-03-26T10:48:50.452Z,928.13
2018-03-26T10:49:50.662Z,1023.75
2018-03-26T10:50:50.872Z,1119.38
2018-03-26T10:51:51.085Z,1170.00
2018-03-26T10:52:51.298Z,1243.13
2018-03-26T10:53:51.505Z,1473.75
2018-03-26T10:54:51.727Z,1507.50
2018-03-26T10:55:51.932Z,1631.25
2018-03-26T10:56:52.141Z,1513.13
2018-03-26T10:57:52.350Z,1451.25
2018-03-26T10:58:52.559Z,1524.38
2018-03-26T10:59:52.784Z,1884.38
2018-03-26T11:00:52.996Z,2874.38
2018-03-26T11:01:53.211Z,2795.63
2018-03-26T11:02:53.454Z,2660.63
2018-03-26T11:03:56.176Z,2958.75
2018-03-26T11:04:55.671Z,3768.75
2018-03-26T11:05:54.128Z,2970.00
2018-03-26T11:06:56.163Z,1946.25
2018-03-26T11:07:58.213Z,2036.25
2018-03-26T11:08:54.675Z,2143.13
2018-03-26T11:09:56.665Z,2362.50
2018-03-26T11:10:55.024Z,2773.13
2018-03-26T11:12:07.176Z,3465.00
2018-03-26T11:12:55.405Z,3414.38
2018-03-26T11:13:57.162Z,3369.38
2018-03-26T11:14:55.617Z,4573.13
2018-03-26T11:15:56.864Z,4314.38
2018-03-26T11:16:55.965Z,3335.63
2018-03-26T11:18:04.162Z,4280.63
2018-03-26T11:19:04.167Z,4263.75
2018-03-26T11:19:56.499Z,4050.00
2018-03-26T11:20:58.663Z,4246.88
2018-03-26T11:21:56.914Z,3988.13
2018-03-26T11:22:58.666Z,3240.00
2018-03-26T11:23:59.184Z,4331.25
2018-03-26T11:25:05.136Z,4511.25
2018-03-26T11:25:59.212Z,4258.13
2018-03-26T11:26:59.665Z,1923.75
2018-03-26T11:27:59.708Z,1659.38
2018-03-26T11:28:58.138Z,1468.13
2018-03-26T11:30:00.167Z,1203.75
2018-03-26T11:30:59.539Z,978.75
2018-03-26T11:32:00.207Z,860.63
2018-03-26T11:33:00.683Z,860.63
2018-03-26T11:33:59.037Z,911.25
2018-03-26T11:35:00.686Z,894.38
2018-03-26T11:35:59.266Z,1102.50
2018-03-26T11:37:00.518Z,1153.13
2018-03-26T11:38:03.164Z,973.13
2018-03-26T11:39:03.665Z,832.50
2018-03-26T11:39:59.881Z,714.38
2018-03-26T11:41:01.664Z,641.25
2018-03-26T11:42:00.272Z,596.25
2018-03-26T11:43:02.180Z,579.38
2018-03-26T11:44:04.171Z,585.00
2018-03-26T11:45:00.896Z,652.50
2018-03-26T11:46:02.669Z,793.13
2018-03-26T11:47:03.175Z,1170.00
2018-03-26T11:48:01.411Z,1614.38
2018-03-26T11:49:02.131Z,2446.88
2018-03-26T11:50:01.728Z,1636.88
2018-03-26T11:51:03.665Z,1327.50
2018-03-26T11:52:03.616Z,1209.38
2018-03-26T11:53:03.147Z,1575.00
2018-03-26T11:54:04.189Z,855.00
2018-03-26T11:55:04.183Z,742.50
2018-03-26T11:56:04.178Z,675.00
2018-03-26T11:57:06.680Z,613.13
2018-03-26T11:58:05.140Z,562.50
2018-03-26T11:59:03.238Z,500.63
2018-03-26T12:00:03.461Z,444.38
2018-03-26T12:01:05.184Z,388.13
2018-03-26T12:02:05.696Z,348.75
2018-03-26T12:03:05.045Z,303.75
2018-03-26T12:04:04.168Z,264.38
2018-03-26T12:05:06.214Z,236.25
2018-03-26T12:06:04.430Z,213.75
2018-03-26T12:07:04.644Z,196.88
2018-03-26T12:08:04.878Z,180.00
2018-03-26T12:09:04.968Z,168.75
2018-03-26T12:10:06.194Z,157.50
2018-03-26T12:11:09.173Z,151.88
2018-03-26T12:12:09.179Z,146.25
2018-03-26T12:13:07.721Z,146.25
2018-03-26T12:14:06.032Z,146.25
2018-03-26T12:15:06.142Z,146.25
2018-03-26T12:16:06.364Z,151.88
2018-03-26T12:17:06.569Z,157.50
2018-03-26T12:18:08.669Z,168.75
2018-03-26T12:19:06.998Z,180.00
2018-03-26T12:20:07.206Z,196.88
2018-03-26T12:21:07.450Z,208.13
2018-03-26T12:22:07.641Z,236.25
2018-03-26T12:23:07.857Z,275.63
2018-03-26T12:24:08.070Z,354.38
2018-03-26T12:25:12.398Z,523.13
2018-03-26T12:26:08.486Z,562.50
2018-03-26T12:27:08.701Z,624.38
2018-03-26T12:28:08.908Z,680.63
2018-03-26T12:29:09.129Z,731.25
2018-03-26T12:30:09.339Z,871.88
2018-03-26T12:31:09.565Z,1445.63
2018-03-26T12:32:09.792Z,2778.75
2018-03-26T12:33:10.003Z,2925.00
2018-03-26T12:34:10.224Z,2379.38
2018-03-26T12:35:12.169Z,2390.63
2018-03-26T12:36:10.624Z,3211.88
2018-03-26T12:37:10.866Z,2728.13
2018-03-26T12:38:10.964Z,1721.25
2018-03-26T12:39:13.684Z,1653.75
2018-03-26T12:40:13.130Z,1530.00
2018-03-26T12:41:11.604Z,1490.63
2018-03-26T12:42:18.675Z,1575.00
2018-03-26T12:43:13.670Z,1445.63
2018-03-26T12:44:12.141Z,1186.88
2018-03-26T12:45:17.123Z,1108.13
2018-03-26T12:46:15.171Z,1153.13
2018-03-26T12:47:14.201Z,1350.00
2018-03-26T12:48:15.311Z,2458.13
2018-03-26T12:49:16.671Z,1305.00
2018-03-26T12:50:15.672Z,1395.00
2018-03-26T12:51:13.257Z,1344.38
2018-03-26T12:52:13.509Z,1203.75
2018-03-26T12:53:15.669Z,2233.13